Time;durP1;ratioP1;P1;durP2;ratioP2;P2;SDS_P1;SDS_P2;PMS_P1;PMS_P2;Temp;Humidity;BMP_temperature;BMP_pressure;BME280_temperature;BME280_humidity;BME280_pressure;Samples;Min_cycle;Max_cycle;Signal;HPM_P1;HPM_P2
2023/10/13 00:00:26;;;;;;;8.20;4.15;;;;;;;;;;5057715;28;20486;-69
2023/10/13 00:02:52;;;;;;;8.68;3.25;;;;;;;;;;5075444;28;20031;-69
2023/10/13 00:05:18;;;;;;;8.90;2.67;;;;;;;;;;5075039;28;20024;-69
2023/10/13 00:07:43;;;;;;;7.63;2.28;;;;;;;;;;5075075;28;20398;-69
2023/10/13 00:10:18;;;;;;;9.73;3.72;;;;;;;;;;5074996;28;20029;-69
2023/10/13 00:12:49;;;;;;;11.48;3.58;;;;;;;;;;5075010;28;20539;-69
2023/10/13 00:15:17;;;;;;;11.70;3.78;;;;;;;;;;5058098;28;20056;-69
2023/10/13 00:17:42;;;;;;;10.75;3.15;;;;;;;;;;5074994;28;20026;-69
2023/10/13 00:20:27;;;;;;;14.93;3.78;;;;;;;;;;5074873;28;20027;-69
2023/10/13 00:22:53;;;;;;;14.00;3.70;;;;;;;;;;5074834;28;20020;-69
2023/10/13 00:25:26;;;;;;;13.63;3.22;;;;;;;;;;5074655;28;20108;-69
2023/10/13 00:27:52;;;;;;;6.40;2.95;;;;;;;;;;5056699;28;20031;-69
2023/10/13 00:32:51;;;;;;;8.90;2.90;;;;;;;;;;5074900;28;20034;-69
2023/10/13 00:35:28;;;;;;;9.90;3.55;;;;;;;;;;5057381;28;20424;-69
2023/10/13 00:37:59;;;;;;;11.10;4.05;;;;;;;;;;5058387;28;20027;-69
2023/10/13 00:40:42;;;;;;;10.65;3.83;;;;;;;;;;5056870;28;20042;-69
2023/10/13 00:43:32;;;;;;;8.82;3.42;;;;;;;;;;5074381;28;20075;-69
2023/10/13 00:45:59;;;;;;;14.18;4.28;;;;;;;;;;5058982;28;20453;-69
2023/10/13 00:48:34;;;;;;;18.60;2.80;;;;;;;;;;5056885;28;20404;-70
2023/10/13 00:51:03;;;;;;;8.15;3.75;;;;;;;;;;5074238;28;20028;-69
2023/10/13 00:53:39;;;;;;;9.20;2.97;;;;;;;;;;5056276;28;20029;-69
2023/10/13 00:56:18;;;;;;;9.10;2.47;;;;;;;;;;5057428;28;20074;-69
2023/10/13 00:58:43;;;;;;;14.35;4.95;;;;;;;;;;5058052;28;20024;-69
2023/10/13 01:01:17;;;;;;;10.18;3.15;;;;;;;;;;5055357;28;20478;-69
2023/10/13 01:03:50;;;;;;;13.27;3.25;;;;;;;;;;5074145;28;20030;-69
2023/10/13 01:06:17;;;;;;;10.35;2.58;;;;;;;;;;5057120;28;20355;-69
2023/10/13 01:08:45;;;;;;;17.60;3.33;;;;;;;;;;5056010;28;20028;-69
2023/10/13 01:11:11;;;;;;;9.68;3.38;;;;;;;;;;5055991;28;20032;-69
2023/10/13 01:13:36;;;;;;;8.43;3.17;;;;;;;;;;5073926;28;20016;-69
2023/10/13 01:16:04;;;;;;;10.63;3.30;;;;;;;;;;5073710;28;20505;-69
2023/10/13 01:18:29;;;;;;;7.95;2.83;;;;;;;;;;5073643;28;20034;-70
2023/10/13 01:20:58;;;;;;;10.27;3.42;;;;;;;;;;5073996;28;20036;-71
2023/10/13 01:23:28;;;;;;;12.70;3.50;;;;;;;;;;5073477;28;20509;-71
2023/10/13 01:25:54;;;;;;;15.68;3.22;;;;;;;;;;5056430;28;20079;-71
2023/10/13 01:28:21;;;;;;;9.50;2.97;;;;;;;;;;5055642;28;20569;-71
2023/10/13 01:30:50;;;;;;;8.40;3.53;;;;;;;;;;5073446;28;20032;-71
2023/10/13 01:33:28;;;;;;;16.15;3.03;;;;;;;;;;5073324;28;20537;-71
2023/10/13 01:35:56;;;;;;;7.97;3.17;;;;;;;;;;5056934;28;20099;-71
2023/10/13 01:38:22;;;;;;;7.75;2.85;;;;;;;;;;5055762;28;20021;-71
2023/10/13 01:40:51;;;;;;;9.88;3.00;;;;;;;;;;5073225;28;20502;-71
2023/10/13 01:43:17;;;;;;;12.07;3.17;;;;;;;;;;5073171;28;20020;-71
2023/10/13 01:45:47;;;;;;;10.57;3.33;;;;;;;;;;5055349;28;20027;-71
2023/10/13 01:48:16;;;;;;;9.30;2.83;;;;;;;;;;5055260;28;20028;-71
2023/10/13 01:50:41;;;;;;;5.18;2.80;;;;;;;;;;5055899;28;20027;-71
2023/10/13 01:53:13;;;;;;;8.27;2.60;;;;;;;;;;5055598;28;20025;-71
2023/10/13 01:55:42;;;;;;;8.45;2.00;;;;;;;;;;5073147;28;20425;-71
2023/10/13 01:58:14;;;;;;;8.80;2.88;;;;;;;;;;5055729;28;20028;-71
2023/10/13 02:00:41;;;;;;;5.35;2.88;;;;;;;;;;5056066;28;20024;-71
2023/10/13 02:03:14;;;;;;;8.30;2.67;;;;;;;;;;5055408;28;20055;-71
2023/10/13 02:05:43;;;;;;;8.95;3.08;;;;;;;;;;5073018;28;20032;-71
2023/10/13 02:08:17;;;;;;;7.32;3.03;;;;;;;;;;5055926;28;20021;-71
2023/10/13 02:10:43;;;;;;;12.45;2.85;;;;;;;;;;5056984;28;20055;-71
2023/10/13 02:13:15;;;;;;;6.95;1.95;;;;;;;;;;5072962;28;20393;-71
2023/10/13 02:15:42;;;;;;;5.95;1.95;;;;;;;;;;5073280;28;20401;-71
2023/10/13 02:18:09;;;;;;;4.28;2.58;;;;;;;;;;5072951;28;20490;-71
2023/10/13 02:20:41;;;;;;;6.85;2.88;;;;;;;;;;5055492;28;20035;-71
2023/10/13 02:23:10;;;;;;;10.85;3.10;;;;;;;;;;5072951;28;20082;-71
2023/10/13 02:25:42;;;;;;;6.40;3.38;;;;;;;;;;5072783;28;20101;-71
2023/10/13 02:28:13;;;;;;;6.78;2.95;;;;;;;;;;5056239;28;20111;-71
2023/10/13 02:30:44;;;;;;;4.68;2.67;;;;;;;;;;5055795;28;20024;-71
2023/10/13 02:33:11;;;;;;;7.55;3.25;;;;;;;;;;5055518;28;20035;-71
2023/10/13 02:35:41;;;;;;;4.90;2.17;;;;;;;;;;5072688;28;20074;-71
2023/10/13 02:38:10;;;;;;;6.40;2.83;;;;;;;;;;5055487;28;20021;-71
2023/10/13 02:40:36;;;;;;;5.88;2.53;;;;;;;;;;5055613;28;20024;-71
2023/10/13 02:43:01;;;;;;;7.90;3.20;;;;;;;;;;5055456;28;20532;-71
2023/10/13 02:45:26;;;;;;;9.23;3.53;;;;;;;;;;5073193;28;20024;-71
2023/10/13 02:48:10;;;;;;;6.78;2.60;;;;;;;;;;5073680;28;20124;-71
2023/10/13 02:50:38;;;;;;;12.80;3.15;;;;;;;;;;5072718;28;20024;-71
2023/10/13 02:53:12;;;;;;;7.68;2.83;;;;;;;;;;5054924;28;20025;-71
2023/10/13 02:55:38;;;;;;;8.43;3.22;;;;;;;;;;5055954;28;20044;-71
2023/10/13 02:58:04;;;;;;;8.15;3.58;;;;;;;;;;5072512;28;20400;-71
2023/10/13 03:00:31;;;;;;;8.98;3.50;;;;;;;;;;5054752;28;20031;-71
2023/10/13 03:03:00;;;;;;;13.20;4.32;;;;;;;;;;5072481;28;20060;-71
2023/10/13 03:05:31;;;;;;;13.50;5.43;;;;;;;;;;5055051;28;20028;-71
2023/10/13 03:07:58;;;;;;;11.05;4.38;;;;;;;;;;5072737;28;20025;-71
2023/10/13 03:10:28;;;;;;;18.85;5.40;;;;;;;;;;5055108;28;20028;-71
2023/10/13 03:12:54;;;;;;;13.10;5.80;;;;;;;;;;5038548;28;20456;-71
2023/10/13 03:15:30;;;;;;;14.95;5.60;;;;;;;;;;5054386;28;20158;-71
2023/10/13 03:17:58;;;;;;;12.32;4.85;;;;;;;;;;5072409;28;20030;-71
2023/10/13 03:20:30;;;;;;;13.15;5.05;;;;;;;;;;5054934;28;20099;-71
2023/10/13 03:22:55;;;;;;;16.73;5.25;;;;;;;;;;5055788;28;20021;-71
2023/10/13 03:25:28;;;;;;;13.27;5.70;;;;;;;;;;5057958;28;20021;-71
2023/10/13 03:30:30;;;;;;;22.58;7.53;;;;;;;;;;5058266;28;20043;-71
2023/10/13 03:32:56;;;;;;;20.35;6.93;;;;;;;;;;5075984;28;20483;-71
2023/10/13 03:35:24;;;;;;;19.55;8.05;;;;;;;;;;5057846;28;20103;-71
2023/10/13 03:37:53;;;;;;;16.83;8.32;;;;;;;;;;5058179;28;20031;-71
2023/10/13 03:43:09;;;;;;;20.67;8.13;;;;;;;;;;5075562;28;20100;-71
2023/10/13 03:45:41;;;;;;;30.27;9.70;;;;;;;;;;5060650;28;20030;-71
2023/10/13 03:48:11;;;;;;;26.60;9.45;;;;;;;;;;5057664;28;20048;-71
2023/10/13 03:50:37;;;;;;;26.27;8.80;;;;;;;;;;5075982;28;20378;-71
2023/10/13 03:53:05;;;;;;;31.83;10.40;;;;;;;;;;5075381;28;20032;-71
2023/10/13 03:55:34;;;;;;;30.88;11.98;;;;;;;;;;5075240;28;20020;-71
2023/10/13 03:58:00;;;;;;;31.08;11.73;;;;;;;;;;5075544;28;20031;-71
2023/10/13 04:00:27;;;;;;;29.95;12.32;;;;;;;;;;5075292;28;20025;-71
2023/10/13 04:03:38;;;;;;;33.63;11.48;;;;;;;;;;5057615;28;20058;-71
2023/10/13 04:05:46;;;;;;;35.30;11.43;;;;;;;;;;5064613;28;20035;-71
2023/10/13 04:32:28;;;;;;;29.75;10.75;;;;;;;;;;5059453;28;20028;-72
2023/10/13 04:35:47;;;;;;;24.98;8.98;;;;;;;;;;5074502;28;20051;-71
2023/10/13 04:40:14;;;;;;;21.73;9.90;;;;;;;;;;5074783;28;20028;-71
2023/10/13 04:42:49;;;;;;;21.52;8.73;;;;;;;;;;5074403;28;20085;-71
2023/10/13 04:45:38;;;;;;;17.65;9.02;;;;;;;;;;5074167;28;20025;-71
2023/10/13 04:48:18;;;;;;;17.17;8.18;;;;;;;;;;5059298;28;20032;-71
2023/10/13 04:50:50;;;;;;;17.67;7.95;;;;;;;;;;5074534;28;20104;-71
2023/10/13 04:53:59;;;;;;;19.45;8.38;;;;;;;;;;5056890;28;20077;-72
2023/10/13 05:04:38;;;;;;;25.40;8.00;;;;;;;;;;5074491;28;20032;-71
2023/10/13 05:46:20;;;;;;;21.83;10.20;;;;;;;;;;5072804;28;20039;-71
2023/10/13 05:48:42;;;;;;;26.77;9.45;;;;;;;;;;5073032;28;20440;-71
2023/10/13 06:29:22;;;;;;;47.08;12.65;;;;;;;;;;5072200;28;20451;-71
2023/10/13 06:31:49;;;;;;;37.53;11.93;;;;;;;;;;5072801;28;20112;-71
2023/10/13 06:34:15;;;;;;;33.60;11.93;;;;;;;;;;5072966;28;20028;-71
2023/10/13 06:36:41;;;;;;;34.33;12.48;;;;;;;;;;5056033;28;20100;-71
2023/10/13 06:42:08;;;;;;;40.40;13.82;;;;;;;;;;4971957;28;20106;-71
2023/10/13 06:44:34;;;;;;;29.23;10.55;;;;;;;;;;5034250;28;20044;-71
2023/10/13 06:47:03;;;;;;;34.05;11.50;;;;;;;;;;5072726;28;20380;-72
2023/10/13 06:49:29;;;;;;;37.25;13.07;;;;;;;;;;5072883;28;20031;-72
2023/10/13 06:52:00;;;;;;;37.20;12.68;;;;;;;;;;5072611;28;20032;-71
2023/10/13 06:54:25;;;;;;;29.70;10.85;;;;;;;;;;5072706;28;20020;-70
2023/10/13 06:56:53;;;;;;;30.83;13.25;;;;;;;;;;5054698;28;20092;-70
2023/10/13 06:59:19;;;;;;;27.40;10.35;;;;;;;;;;5075117;28;20058;-70
2023/10/13 07:01:44;;;;;;;28.10;11.80;;;;;;;;;;5058212;28;20470;-70
2023/10/13 07:04:13;;;;;;;27.00;10.52;;;;;;;;;;5058331;28;20021;-70
2023/10/13 07:06:47;;;;;;;23.63;9.93;;;;;;;;;;5058872;28;20025;-70
2023/10/13 07:09:27;;;;;;;27.52;9.68;;;;;;;;;;5059201;28;20052;-70
2023/10/13 07:11:53;;;;;;;28.83;11.98;;;;;;;;;;5076122;28;20024;-70
2023/10/13 07:14:19;;;;;;;29.23;11.80;;;;;;;;;;5076032;28;20078;-70
2023/10/13 07:16:59;;;;;;;34.58;12.30;;;;;;;;;;5076059;28;20104;-70
2023/10/13 07:19:27;;;;;;;28.00;11.55;;;;;;;;;;5058207;28;20054;-70
2023/10/13 07:22:19;;;;;;;36.13;12.50;;;;;;;;;;5075940;28;20432;-70
2023/10/13 07:24:49;;;;;;;35.35;12.15;;;;;;;;;;5074477;28;20031;-69
2023/10/13 07:27:25;;;;;;;40.55;14.55;;;;;;;;;;5058065;28;20029;-70
2023/10/13 07:29:56;;;;;;;43.67;14.60;;;;;;;;;;5058922;28;20048;-70
2023/10/13 07:32:26;;;;;;;38.05;14.25;;;;;;;;;;5074484;28;20025;-71
2023/10/13 07:34:57;;;;;;;40.42;13.77;;;;;;;;;;5075620;28;20031;-70
2023/10/13 07:37:27;;;;;;;44.17;14.23;;;;;;;;;;5075661;28;20552;-70
2023/10/13 07:39:53;;;;;;;40.38;13.75;;;;;;;;;;5058437;28;20024;-70
2023/10/13 07:42:21;;;;;;;38.70;12.93;;;;;;;;;;5075684;28;20058;-69
2023/10/13 07:44:47;;;;;;;38.55;14.05;;;;;;;;;;5075420;28;20032;-70
2023/10/13 07:47:14;;;;;;;33.53;12.63;;;;;;;;;;5075676;28;20043;-70
2023/10/13 07:49:40;;;;;;;32.25;12.75;;;;;;;;;;5075417;28;20025;-70
2023/10/13 07:52:25;;;;;;;31.38;13.38;;;;;;;;;;5057817;28;20101;-70
2023/10/13 07:55:10;;;;;;;36.42;13.15;;;;;;;;;;5060283;28;20024;-69
2023/10/13 07:57:36;;;;;;;39.05;13.55;;;;;;;;;;5075351;28;20070;-69
2023/10/13 08:00:11;;;;;;;31.23;11.88;;;;;;;;;;5057260;28;20028;-69
2023/10/13 08:02:49;;;;;;;28.70;11.05;;;;;;;;;;5058747;28;20112;-69
2023/10/13 08:05:39;;;;;;;27.92;11.50;;;;;;;;;;5059058;28;20122;-69
2023/10/13 08:08:14;;;;;;;29.02;11.20;;;;;;;;;;5075253;28;20024;-69
2023/10/13 08:10:39;;;;;;;35.70;11.85;;;;;;;;;;5058362;28;20470;-69
2023/10/13 08:13:12;;;;;;;31.95;11.18;;;;;;;;;;5057496;28;20025;-69
2023/10/13 08:15:40;;;;;;;27.33;10.68;;;;;;;;;;5057761;28;20104;-69
2023/10/13 08:18:16;;;;;;;26.75;9.02;;;;;;;;;;5074844;28;20390;-70
2023/10/13 08:20:42;;;;;;;21.10;8.77;;;;;;;;;;5074938;28;20474;-69
2023/10/13 08:23:14;;;;;;;19.90;9.23;;;;;;;;;;5074839;28;20112;-70
2023/10/13 08:31:22;;;;;;;22.23;9.82;;;;;;;;;;5061480;28;20120;-70
2023/10/13 08:33:50;;;;;;;21.58;9.02;;;;;;;;;;5056509;28;20024;-69
2023/10/13 08:36:27;;;;;;;24.75;10.73;;;;;;;;;;5074595;28;20016;-70
2023/10/13 08:38:55;;;;;;;;;;;;;;;;;;5059289;28;20486;-70
2023/10/13 08:43:52;;;;;;;18.52;8.73;;;;;;;;;;5056479;28;20040;-70
2023/10/13 08:46:30;;;;;;;15.88;7.60;;;;;;;;;;5071673;23;20080;-76
2023/10/13 08:49:15;;;;;;;16.00;6.63;;;;;;;;;;5058792;28;20074;-75
2023/10/13 08:52:04;;;;;;;13.68;7.07;;;;;;;;;;5059073;28;20047;-75
2023/10/13 08:54:33;;;;;;;14.57;7.20;;;;;;;;;;5059527;28;20501;-75
2023/10/13 08:57:06;;;;;;;14.68;6.30;;;;;;;;;;5074098;28;20029;-76
2023/10/13 08:59:49;;;;;;;13.63;6.18;;;;;;;;;;5056922;28;20508;-76
2023/10/13 09:02:18;;;;;;;11.73;6.07;;;;;;;;;;5058367;28;20039;-76
2023/10/13 09:04:44;;;;;;;7.03;4.35;;;;;;;;;;5055852;28;20029;-76
2023/10/13 09:07:15;;;;;;;7.00;2.97;;;;;;;;;;5055961;28;20031;-76
2023/10/13 09:12:13;;;;;;;5.28;3.17;;;;;;;;;;5074133;28;20033;-76
2023/10/13 09:14:48;;;;;;;7.50;3.80;;;;;;;;;;5073536;28;20070;-76
2023/10/13 09:19:57;;;;;;;7.18;3.65;;;;;;;;;;5056445;28;20028;-76
2023/10/13 09:22:27;;;;;;;9.77;3.90;;;;;;;;;;5055814;28;20079;-76
2023/10/13 09:24:58;;;;;;;5.80;3.67;;;;;;;;;;5073443;28;20103;-76
2023/10/13 09:27:26;;;;;;;5.97;2.90;;;;;;;;;;5055824;28;20431;-76
2023/10/13 09:30:10;;;;;;;5.45;3.53;;;;;;;;;;5073448;28;20020;-77
2023/10/13 09:32:50;;;;;;;7.28;3.50;;;;;;;;;;5056727;28;20021;-76
2023/10/13 09:35:22;;;;;;;6.20;3.30;;;;;;;;;;5057814;28;20071;-76
2023/10/13 09:37:49;;;;;;;5.50;3.67;;;;;;;;;;5055803;28;20028;-77
2023/10/13 09:40:25;;;;;;;6.60;3.55;;;;;;;;;;5055388;28;20025;-76
2023/10/13 09:42:56;;;;;;;6.88;4.50;;;;;;;;;;5056822;28;20081;-77
2023/10/13 09:45:28;;;;;;;;;;;;;;;;;;5055947;28;20103;-77
2023/10/13 09:47:58;;;;;;;7.30;3.88;;;;;;;;;;5071952;28;19918;-77
2023/10/13 09:50:25;;;;;;;8.68;4.88;;;;;;;;;;5073197;28;20563;-77
2023/10/13 09:52:52;;;;;;;9.52;4.90;;;;;;;;;;5055444;28;20021;-77
2023/10/13 09:55:26;;;;;;;9.10;4.60;;;;;;;;;;5038708;28;20030;-76
2023/10/13 09:58:09;;;;;;;8.18;4.70;;;;;;;;;;5055485;28;20386;-76
2023/10/13 10:03:15;;;;;;;;;;;;;;;;;;5056916;28;20025;-76
2023/10/13 10:05:49;;;;;;;13.50;5.53;;;;;;;;;;5072021;28;19909;-77
2023/10/13 10:08:23;;;;;;;10.93;5.25;;;;;;;;;;5056206;28;20035;-76
2023/10/13 10:11:07;;;;;;;12.90;5.70;;;;;;;;;;5055084;28;20071;-77
2023/10/13 10:13:41;;;;;;;12.48;5.78;;;;;;;;;;5055758;28;20027;-77
2023/10/13 10:16:20;;;;;;;13.57;5.93;;;;;;;;;;5054985;28;20064;-76
2023/10/13 10:18:45;;;;;;;12.27;5.93;;;;;;;;;;5055318;28;20024;-76
2023/10/13 10:21:11;;;;;;;14.32;5.40;;;;;;;;;;5072972;28;20020;-76
2023/10/13 10:23:43;;;;;;;11.27;6.13;;;;;;;;;;5054995;28;20027;-76
2023/10/13 10:26:20;;;;;;;14.48;5.80;;;;;;;;;;5055938;28;20543;-76
2023/10/13 10:28:46;;;;;;;15.57;5.63;;;;;;;;;;5055729;28;20398;-76
2023/10/13 10:31:19;;;;;;;12.52;5.68;;;;;;;;;;5072621;28;20021;-76
2023/10/13 10:33:46;;;;;;;16.10;6.18;;;;;;;;;;5059478;28;20059;-76
2023/10/13 10:36:14;;;;;;;11.82;5.40;;;;;;;;;;5058918;28;20486;-76
2023/10/13 10:39:05;;;;;;;18.17;5.50;;;;;;;;;;5076761;28;20536;-76
2023/10/13 10:47:09;;;;;;;18.10;7.07;;;;;;;;;;5061487;28;20123;-76
2023/10/13 10:49:41;;;;;;;15.23;5.45;;;;;;;;;;5058661;28;20056;-76
2023/10/13 10:52:14;;;;;;;11.00;5.40;;;;;;;;;;5077108;28;20382;-77
2023/10/13 10:54:43;;;;;;;17.55;6.40;;;;;;;;;;5076949;28;20428;-76
2023/10/13 10:57:12;;;;;;;16.13;6.70;;;;;;;;;;5059141;28;20017;-77
2023/10/13 10:59:38;;;;;;;14.50;6.80;;;;;;;;;;5059064;28;20508;-76
2023/10/13 11:02:04;;;;;;;12.60;6.15;;;;;;;;;;5058873;28;20017;-76
2023/10/13 11:04:40;;;;;;;25.83;8.73;;;;;;;;;;5058900;28;20032;-76
2023/10/13 11:07:06;;;;;;;21.30;8.65;;;;;;;;;;5060201;28;20030;-76
2023/10/13 11:12:15;;;;;;;16.13;7.70;;;;;;;;;;5060337;28;20024;-76
2023/10/13 11:14:41;;;;;;;12.32;5.82;;;;;;;;;;5058680;28;20066;-76
2023/10/13 11:17:21;;;;;;;16.10;7.28;;;;;;;;;;5058045;28;20112;-76
2023/10/13 11:19:46;;;;;;;15.77;6.75;;;;;;;;;;5075966;28;20483;-76
2023/10/13 11:22:32;;;;;;;15.07;7.43;;;;;;;;;;5058068;28;20016;-76
2023/10/13 11:25:11;;;;;;;13.82;6.30;;;;;;;;;;5059070;28;20017;-76
2023/10/13 11:30:40;;;;;;;13.27;7.05;;;;;;;;;;5059651;28;20033;-76
2023/10/13 11:33:10;;;;;;;15.73;6.65;;;;;;;;;;5061389;28;20474;-76
2023/10/13 11:46:13;;;;;;;19.15;7.18;;;;;;;;;;5059344;28;20131;-76
2023/10/13 11:48:41;;;;;;;17.33;7.18;;;;;;;;;;5057862;28;20501;-75
2023/10/13 11:51:17;;;;;;;20.15;8.27;;;;;;;;;;5057428;28;20032;-76
2023/10/13 11:53:43;;;;;;;15.48;6.78;;;;;;;;;;5075256;28;20025;-76
2023/10/13 11:56:09;;;;;;;14.38;7.10;;;;;;;;;;5057205;28;20115;-76
2023/10/13 11:58:39;;;;;;;20.85;8.05;;;;;;;;;;5057668;28;20052;-75
2023/10/13 12:11:53;;;;;;;;;;;;;;;;;;5030174;28;20068;-75
2023/10/13 12:14:27;;;;;;;14.43;7.00;;;;;;;;;;5073930;28;20290;-75
2023/10/13 12:16:53;;;;;;;23.80;8.38;;;;;;;;;;5075010;28;20052;-74
2023/10/13 12:19:27;;;;;;;18.38;7.45;;;;;;;;;;5056883;28;20064;-74
2023/10/13 12:21:57;;;;;;;20.15;8.57;;;;;;;;;;5040748;28;20017;-74
2023/10/13 12:24:53;;;;;;;15.35;7.47;;;;;;;;;;5056714;28;20075;-74
2023/10/13 12:27:19;;;;;;;21.02;8.55;;;;;;;;;;5060057;28;20050;-74
2023/10/13 12:29:47;;;;;;;19.92;8.45;;;;;;;;;;5074545;28;20032;-74
2023/10/13 12:32:14;;;;;;;19.50;7.30;;;;;;;;;;5074857;28;20355;-74
2023/10/13 12:53:52;;;;;;;26.92;8.02;;;;;;;;;;5074289;28;20038;-73
2023/10/13 12:56:18;;;;;;;20.73;7.68;;;;;;;;;;5056038;28;20024;-73
2023/10/13 12:58:52;;;;;;;19.52;7.22;;;;;;;;;;5056068;28;20025;-73
2023/10/13 13:01:25;;;;;;;18.40;7.57;;;;;;;;;;5057358;28;20028;-73
2023/10/13 13:03:55;;;;;;;20.42;7.20;;;;;;;;;;5073833;28;20025;-73
2023/10/13 13:06:24;;;;;;;19.23;6.45;;;;;;;;;;5056611;28;20432;-73
2023/10/13 13:08:53;;;;;;;15.82;6.78;;;;;;;;;;5073666;28;20514;-73
2023/10/13 13:11:19;;;;;;;23.52;7.05;;;;;;;;;;5056325;28;20497;-73
2023/10/13 13:13:47;;;;;;;20.02;7.45;;;;;;;;;;5055824;28;20104;-73
2023/10/13 13:16:18;;;;;;;24.23;7.32;;;;;;;;;;5055949;28;20027;-73
2023/10/13 13:18:43;;;;;;;21.13;7.00;;;;;;;;;;5056113;28;20028;-73
2023/10/13 13:21:12;;;;;;;14.70;7.45;;;;;;;;;;5055619;28;20111;-73
2023/10/13 13:23:39;;;;;;;17.10;8.07;;;;;;;;;;5073329;28;20032;-73
2023/10/13 13:26:15;;;;;;;20.35;6.40;;;;;;;;;;5073640;28;20028;-73
2023/10/13 13:28:42;;;;;;;17.55;6.90;;;;;;;;;;5073497;28;20390;-72
2023/10/13 13:31:08;;;;;;;21.67;8.13;;;;;;;;;;5055758;28;20098;-73
2023/10/13 13:33:38;;;;;;;14.68;5.82;;;;;;;;;;5055347;28;20490;-73
2023/10/13 13:36:07;;;;;;;18.70;7.28;;;;;;;;;;5073642;28;20032;-73
2023/10/13 13:38:33;;;;;;;13.25;6.10;;;;;;;;;;5055519;28;20433;-73
2023/10/13 13:41:09;;;;;;;19.48;6.57;;;;;;;;;;5071840;28;20020;-73
2023/10/13 13:43:37;;;;;;;21.15;6.55;;;;;;;;;;5073182;28;20028;-72
2023/10/13 13:46:08;;;;;;;22.63;7.47;;;;;;;;;;5072813;28;20025;-73
2023/10/13 13:48:34;;;;;;;15.65;6.45;;;;;;;;;;5055863;28;20078;-72
2023/10/13 13:51:14;;;;;;;22.10;8.27;;;;;;;;;;5073013;28;20024;-73
2023/10/13 13:53:44;;;;;;;14.10;6.47;;;;;;;;;;5073046;28;20048;-72
2023/10/13 13:56:18;;;;;;;25.15;6.82;;;;;;;;;;5055880;28;20113;-72
2023/10/13 13:58:44;;;;;;;18.25;6.68;;;;;;;;;;5073587;28;20563;-73
2023/10/13 14:01:13;;;;;;;28.10;7.15;;;;;;;;;;5073107;28;20043;-73
2023/10/13 14:03:45;;;;;;;19.85;6.63;;;;;;;;;;5073054;28;20033;-73
2023/10/13 14:06:18;;;;;;;18.55;5.80;;;;;;;;;;5055882;28;20390;-72
2023/10/13 14:08:48;;;;;;;19.10;7.30;;;;;;;;;;5072777;28;20025;-72
2023/10/13 14:11:13;;;;;;;16.58;7.50;;;;;;;;;;5072784;28;20028;-72
2023/10/13 14:13:48;;;;;;;16.48;6.97;;;;;;;;;;5054998;28;20107;-73
2023/10/13 14:16:18;;;;;;;28.05;7.05;;;;;;;;;;5072976;28;20031;-72
2023/10/13 14:18:47;;;;;;;26.23;7.63;;;;;;;;;;5073031;28;20074;-74
2023/10/13 14:21:16;;;;;;;22.02;7.57;;;;;;;;;;5054777;28;20016;-73
2023/10/13 14:23:51;;;;;;;21.17;6.55;;;;;;;;;;5055271;28;20028;-73
2023/10/13 14:26:21;;;;;;;30.85;7.47;;;;;;;;;;5055069;28;20074;-73
2023/10/13 14:29:05;;;;;;;25.50;7.85;;;;;;;;;;5072693;28;20016;-73
2023/10/13 14:31:31;;;;;;;32.65;7.57;;;;;;;;;;5057355;28;20367;-73
2023/10/13 14:33:57;;;;;;;28.15;6.93;;;;;;;;;;5055091;28;20032;-73
2023/10/13 14:36:23;;;;;;;21.23;6.80;;;;;;;;;;5055095;28;20054;-72
2023/10/13 14:38:52;;;;;;;24.02;8.48;;;;;;;;;;5054709;28;20029;-73
2023/10/13 14:41:18;;;;;;;21.38;7.97;;;;;;;;;;5055107;28;20092;-73
2023/10/13 14:43:47;;;;;;;31.50;7.55;;;;;;;;;;5054766;28;20025;-73
2023/10/13 14:46:22;;;;;;;28.05;8.35;;;;;;;;;;5070468;23;20040;-70
2023/10/13 14:48:48;;;;;;;27.70;7.72;;;;;;;;;;5072633;28;20406;-69
2023/10/13 14:51:14;;;;;;;16.80;6.72;;;;;;;;;;5071296;28;20027;-70
2023/10/13 14:53:43;;;;;;;33.80;8.88;;;;;;;;;;5071522;28;20028;-69
2023/10/13 14:56:12;;;;;;;36.10;7.65;;;;;;;;;;5071214;28;20040;-70
2023/10/13 14:58:44;;;;;;;28.02;7.93;;;;;;;;;;5071359;28;20028;-69
2023/10/13 15:01:17;;;;;;;27.52;9.85;;;;;;;;;;5072789;28;20024;-69
2023/10/13 15:03:50;;;;;;;16.50;7.15;;;;;;;;;;5054557;28;20021;-69
2023/10/13 15:06:20;;;;;;;31.33;7.57;;;;;;;;;;5071486;28;20025;-70
2023/10/13 15:08:46;;;;;;;27.83;8.57;;;;;;;;;;5087829;28;20484;-69
2023/10/13 15:11:13;;;;;;;21.95;7.85;;;;;;;;;;5072313;28;20385;-69
2023/10/13 15:13:41;;;;;;;22.75;8.27;;;;;;;;;;5071202;28;20098;-70
2023/10/13 15:16:21;;;;;;;28.38;7.28;;;;;;;;;;5088158;28;20449;-69
2023/10/13 15:18:47;;;;;;;27.60;8.48;;;;;;;;;;5071530;28;20032;-69
2023/10/13 15:21:22;;;;;;;21.60;10.02;;;;;;;;;;5074750;28;20417;-69
2023/10/13 15:23:51;;;;;;;25.20;8.43;;;;;;;;;;5091562;28;20024;-69
2023/10/13 15:26:23;;;;;;;23.50;7.88;;;;;;;;;;5074479;28;20035;-69
2023/10/13 15:28:49;;;;;;;28.92;8.32;;;;;;;;;;5074633;28;20029;-69
2023/10/13 15:31:37;;;;;;;25.10;8.60;;;;;;;;;;5074478;28;20107;-69
2023/10/13 15:34:06;;;;;;;26.25;8.18;;;;;;;;;;5074526;28;20074;-69
2023/10/13 15:36:33;;;;;;;26.35;10.07;;;;;;;;;;5058115;28;20020;-69
2023/10/13 15:38:58;;;;;;;21.75;9.75;;;;;;;;;;5074358;28;20103;-69
2023/10/13 15:41:24;;;;;;;25.23;9.10;;;;;;;;;;5091220;28;20055;-69
2023/10/13 15:43:49;;;;;;;19.02;8.32;;;;;;;;;;5091261;28;20103;-69
2023/10/13 15:46:17;;;;;;;20.77;8.23;;;;;;;;;;5075798;28;20458;-69
2023/10/13 15:48:45;;;;;;;26.60;9.00;;;;;;;;;;5074261;28;20074;-69
2023/10/13 15:51:14;;;;;;;21.15;8.25;;;;;;;;;;5090936;28;20375;-69
2023/10/13 15:53:39;;;;;;;31.30;10.27;;;;;;;;;;5075378;28;20025;-69
2023/10/13 15:56:11;;;;;;;22.15;7.93;;;;;;;;;;5074053;28;20028;-69
2023/10/13 15:58:37;;;;;;;21.38;7.50;;;;;;;;;;5075392;28;20025;-69
2023/10/13 16:01:02;;;;;;;31.60;9.73;;;;;;;;;;5075312;28;20029;-69
2023/10/13 16:03:27;;;;;;;28.02;8.48;;;;;;;;;;5075570;28;20107;-69
2023/10/13 16:05:53;;;;;;;23.80;8.02;;;;;;;;;;5075396;28;20016;-69
2023/10/13 16:08:18;;;;;;;23.02;8.25;;;;;;;;;;5075115;28;20102;-69
2023/10/13 16:10:44;;;;;;;22.58;8.52;;;;;;;;;;5075170;28;20021;-69
2023/10/13 16:13:15;;;;;;;21.33;8.35;;;;;;;;;;5075229;28;20027;-69
2023/10/13 16:15:42;;;;;;;31.40;8.75;;;;;;;;;;5073870;28;20101;-70
2023/10/13 16:18:08;;;;;;;21.27;8.82;;;;;;;;;;5057098;28;20160;-70
2023/10/13 16:20:35;;;;;;;23.60;8.55;;;;;;;;;;5090860;28;20017;-69
2023/10/13 16:23:01;;;;;;;34.70;7.57;;;;;;;;;;5073883;28;20402;-69
2023/10/13 16:25:26;;;;;;;21.55;8.68;;;;;;;;;;5074854;28;20087;-69
2023/10/13 16:27:52;;;;;;;30.55;9.70;;;;;;;;;;5075033;28;20020;-69
2023/10/13 16:30:19;;;;;;;30.65;10.00;;;;;;;;;;5090093;28;20462;-69
2023/10/13 16:32:45;;;;;;;39.22;9.65;;;;;;;;;;5074682;28;20024;-69
2023/10/13 16:35:13;;;;;;;26.58;8.98;;;;;;;;;;5056782;28;20029;-70
2023/10/13 16:37:38;;;;;;;26.30;8.60;;;;;;;;;;5074580;28;20398;-69
2023/10/13 16:40:05;;;;;;;29.08;10.48;;;;;;;;;;5090205;28;20017;-69
2023/10/13 16:42:34;;;;;;;24.67;7.70;;;;;;;;;;5090148;28;20024;-69
2023/10/13 16:45:14;;;;;;;24.13;8.50;;;;;;;;;;5074748;28;20035;-69
2023/10/13 16:47:42;;;;;;;28.13;9.25;;;;;;;;;;5074259;28;20028;-69
2023/10/13 16:50:09;;;;;;;29.88;9.02;;;;;;;;;;5090195;28;20543;-69
2023/10/13 16:52:34;;;;;;;18.45;8.05;;;;;;;;;;5074285;28;20024;-69
2023/10/13 16:54:59;;;;;;;39.13;9.43;;;;;;;;;;5074245;28;20028;-70
2023/10/13 16:57:26;;;;;;;25.80;8.73;;;;;;;;;;5074160;28;20020;-69
2023/10/13 16:59:51;;;;;;;22.55;8.40;;;;;;;;;;5074448;28;20077;-69
2023/10/13 17:02:17;;;;;;;26.02;9.40;;;;;;;;;;5074127;28;20412;-69
2023/10/13 17:04:42;;;;;;;27.35;8.77;;;;;;;;;;5074125;28;20020;-69
2023/10/13 17:07:08;;;;;;;34.33;9.40;;;;;;;;;;5074229;28;20033;-69
2023/10/13 17:09:33;;;;;;;32.88;9.30;;;;;;;;;;5089667;28;20044;-69
2023/10/13 17:11:58;;;;;;;31.92;9.93;;;;;;;;;;5073863;28;20013;-69
2023/10/13 17:14:24;;;;;;;27.38;9.80;;;;;;;;;;5073848;28;20039;-69
2023/10/13 17:16:49;;;;;;;25.13;8.77;;;;;;;;;;5074095;28;20020;-69
2023/10/13 17:19:14;;;;;;;29.52;10.43;;;;;;;;;;5073813;28;20103;-69
2023/10/13 17:21:40;;;;;;;27.13;10.50;;;;;;;;;;5089775;28;20020;-69
2023/10/13 17:24:05;;;;;;;24.70;7.95;;;;;;;;;;5073972;28;20024;-69
2023/10/13 17:26:31;;;;;;;29.13;9.73;;;;;;;;;;5073900;28;20493;-69
2023/10/13 17:28:58;;;;;;;27.60;9.40;;;;;;;;;;5073639;28;20024;-69
2023/10/13 17:31:26;;;;;;;36.00;9.88;;;;;;;;;;5088948;28;20043;-69
2023/10/13 17:33:52;;;;;;;28.60;8.60;;;;;;;;;;5073570;28;20038;-69
2023/10/13 17:36:17;;;;;;;29.23;8.32;;;;;;;;;;5089136;28;20016;-70
2023/10/13 17:38:44;;;;;;;23.30;8.38;;;;;;;;;;5089238;28;20501;-69
2023/10/13 17:41:11;;;;;;;29.88;9.45;;;;;;;;;;5072024;28;20020;-69
2023/10/13 17:43:37;;;;;;;23.33;8.57;;;;;;;;;;5072875;28;20105;-69
2023/10/13 17:46:07;;;;;;;24.38;7.63;;;;;;;;;;5072027;28;20083;-69
2023/10/13 17:48:32;;;;;;;23.63;8.25;;;;;;;;;;5088968;28;20020;-69
2023/10/13 17:50:57;;;;;;;29.98;9.05;;;;;;;;;;5088889;28;20386;-70
2023/10/13 17:53:23;;;;;;;23.08;7.70;;;;;;;;;;5073749;28;20032;-69
2023/10/13 17:55:50;;;;;;;23.85;8.38;;;;;;;;;;5073848;28;20089;-69
2023/10/13 17:58:15;;;;;;;24.83;8.32;;;;;;;;;;5088511;28;20035;-69